Terminal Aerodrome Forecast
Issued by NWS

Home | Current Version | Previous Version | Graphics & Text | Print | Product List | Glossary On
Versions: 1 2 3 4 5 6 7 8 9 10 11 12 13 14 15 16
000
FTUS43 KICT 011419 AAD
TAFRSL
TAF AMD
KRSL 011419Z 0114/0212 32014G22KT P6SM OVC008
     FM011600 34016G24KT P6SM OVC015
     FM011800 35016G24KT P6SM BKN025 BKN200
     FM012100 36015G23KT P6SM SCT020 OVC035
     FM020000 02012KT P6SM OVC035
     FM020700 36007KT P6SM SCT015 BKN025=

USA.gov is the U.S. government's official web portal to all federal, state and local government web resources and services.